Wheeler, Arkansas
Current Conditions -  °F | °C
As of 6:53 PM on Monday 24 Nov 2014 (Local Time) from KFYV Reporting Station
Clear Clear  
Wind Chill: 40°   Ceiling: Unl
Heat Index: 44°   Visibility: 10mi
Dew Point: 24°   Wind: 8mph
Humidity: 45%   Direction: 260°W
Pressure: 30.02"   Gusts: NA
Location:  36.0926°N, 94.221°W
Report Text: KFYV 250053Z 26007KT 10SM CLR 07/M04 A3002 RMK AO2 SLP168 T00671044
Loading
Personal Weather Stations






























Interactive Weather Map New forecast layout! Learn more

10-Day Weather Forecast

Advertisements
Track Severe Weather on mobile